Ana Sayfa
METAR-TAF:

METAR-TAF

Havaalanları :

Zafer Havalimanı

Kütahya, Türkiye

Enlem: 39-06-41N, Boylam: 30-07-48E, yükseklik: 1013 m

Güncel hava durumu gözlemi

Rapor saat 03:50 UTC de 11 saat ve 0 dakika önce yapıldı.
Rüzgar kuzey/kuzeybatıdan 5 kt, batı/kuzeybatı ve kuzey arasında değişken
Sıcaklık 1°C
Nem 75%
Basınç 1019 hPa
Görüş mesafesi 10 km veya daha fazla
3000 ft yükseklikte parçalı çok bulutlu

METAR: LTBZ 210350Z 34005KT 290V360 9999 BKN030 01/M03 Q1019

Saat: 17:50 (14:50 UTC)

Tahmin

Rapor saat 13:40 UTC de 1 saat ve 10 dakika önce yapıldı.
Ayın 21'si saat 15 UTC'den ayın 21'si saat 24 UTC'ye kadar geçerli Tahmin
Rüzgar kuzeydan 12 kt
Görüş mesafesi 10 km veya daha fazla
4000 ft yükseklikte parçalı bulutlu
Dönüşüyor
ayın 21'si saat 20 UTC'den ayın 21'si saat 23 UTC'ye kadar
Görüş mesafesi 10 km veya daha fazla
1500 m altında bulut yok ve kümülonimbus yok

TAF: LTBZ 211340Z 2115/2124 36012KT 9999 SCT040 BECMG 2120/2123 CAVOK

4.000'den fazla havaalanı için hava durumu gözlemleri ve tahminleri (METAR ve TAF raporları).

Kullanılabilir istasyonlar harita üzerinde sarı ve kırmızı noktalarla gösterilir.

İstasyonun adını görmek için fareyi noktanın üzerinde gezdirin.

Sonrasında hava gözlem ve tahminlerini görmek için tıklayın.

Haritayı değiştirmek için: yaklaştırmak için siyah artı işaretli yeşil düğmeye ve uzaklaştırmak için de eksi işaretli düğmeye hızla tıklayın; bitişik haritalar için yeşil okları kullanın.


METAR-TAF: